KLM187A EHAM-EBBR
Flight info
| Callsign | KLM187A |
|---|---|
| Flight time | N/A |
| Altitude | 13000 |
| Route | WOODY |
| Aircraft | B738/M-SDE2E3FGHIRWXY/LB1 |
Departure
| Time | 2026-04-27 14:14 |
|---|---|
| Airport | Amsterdam Airport Schiphol (EHAM) |
Arrival
| Time | N/A |
|---|---|
| Airport | Brussels Airport (EBBR) |
| Time | Latitude | Longitude | Altitude | Speed | Heading |
|---|---|---|---|---|---|
| 2026-04-27 13:59 | 52.30571 | 4.76486 | -2 ft | 0 kts | 58° |
| 2026-04-27 14:03 | 52.30557 | 4.76459 | -2 ft | 3 kts | 58° |
| 2026-04-27 14:03 | 52.30547 | 4.76428 | -2 ft | 4 kts | 78° |
| 2026-04-27 14:03 | 52.30547 | 4.76386 | -2 ft | 4 kts | 109° |
| 2026-04-27 14:04 | 52.30549 | 4.76377 | -2 ft | 1 kts | 112° |
| 2026-04-27 14:07 | 52.30547 | 4.76384 | -2 ft | 2 kts | 113° |
| 2026-04-27 14:07 | 52.30524 | 4.76417 | -2 ft | 11 kts | 143° |
| 2026-04-27 14:07 | 52.30411 | 4.76534 | -2 ft | 25 kts | 148° |
| 2026-04-27 14:08 | 52.30278 | 4.76485 | -2 ft | 23 kts | 239° |
| 2026-04-27 14:08 | 52.30192 | 4.76253 | -2 ft | 27 kts | 238° |
| 2026-04-27 14:08 | 52.30076 | 4.75949 | -2 ft | 36 kts | 237° |
| 2026-04-27 14:08 | 52.29925 | 4.75561 | -2 ft | 44 kts | 238° |
| 2026-04-27 14:09 | 52.29853 | 4.75178 | -2 ft | 34 kts | 300° |
| 2026-04-27 14:09 | 52.30018 | 4.74865 | -2 ft | 40 kts | 310° |
| 2026-04-27 14:09 | 52.30212 | 4.74507 | 9 ft | 43 kts | 311° |
| 2026-04-27 14:09 | 52.30415 | 4.74196 | -2 ft | 30 kts | 355° |
| 2026-04-27 14:10 | 52.30644 | 4.74215 | -2 ft | 36 kts | 3° |
| 2026-04-27 14:10 | 52.30908 | 4.74239 | -2 ft | 41 kts | 3° |
| 2026-04-27 14:10 | 52.31209 | 4.74268 | -2 ft | 45 kts | 2° |
| 2026-04-27 14:10 | 52.31533 | 4.74294 | -2 ft | 44 kts | 4° |
| 2026-04-27 14:11 | 52.31824 | 4.74323 | -2 ft | 43 kts | 4° |
| 2026-04-27 14:11 | 52.32027 | 4.74254 | -2 ft | 28 kts | 288° |
| 2026-04-27 14:11 | 52.32043 | 4.73889 | -2 ft | 36 kts | 273° |
| 2026-04-27 14:11 | 52.32061 | 4.73446 | -2 ft | 43 kts | 284° |
| 2026-04-27 14:12 | 52.32270 | 4.73103 | -2 ft | 45 kts | 319° |
| 2026-04-27 14:12 | 52.32519 | 4.72754 | -2 ft | 50 kts | 321° |
| 2026-04-27 14:12 | 52.32769 | 4.72354 | -2 ft | 38 kts | 310° |
| 2026-04-27 14:12 | 52.32927 | 4.72054 | -2 ft | 37 kts | 312° |
| 2026-04-27 14:13 | 52.33110 | 4.71718 | -2 ft | 37 kts | 310° |
| 2026-04-27 14:13 | 52.33146 | 4.71555 | -2 ft | 11 kts | 257° |
| 2026-04-27 14:13 | 52.33154 | 4.71383 | -2 ft | 24 kts | 309° |
| 2026-04-27 14:13 | 52.33298 | 4.71113 | -2 ft | 39 kts | 313° |
| 2026-04-27 14:14 | 52.33598 | 4.70953 | -1 ft | 75 kts | 4° |
| 2026-04-27 14:14 | 52.34427 | 4.71039 | -5 ft | 159 kts | 4° |
| 2026-04-27 14:14 | 52.35731 | 4.71152 | 519 ft | 194 kts | 3° |
| 2026-04-27 14:14 | 52.37130 | 4.71254 | 1732 ft | 206 kts | 5° |
| 2026-04-27 14:15 | 52.38535 | 4.71383 | 3019 ft | 205 kts | 3° |
| 2026-04-27 14:15 | 52.39953 | 4.71591 | 4242 ft | 201 kts | 14° |
| 2026-04-27 14:15 | 52.41135 | 4.72670 | 5494 ft | 193 kts | 43° |
| 2026-04-27 14:15 | 52.41899 | 4.74538 | 6382 ft | 209 kts | 68° |
| 2026-04-27 14:16 | 52.42063 | 4.76960 | 7151 ft | 225 kts | 96° |
| 2026-04-27 14:16 | 52.41414 | 4.79385 | 7910 ft | 242 kts | 130° |
| 2026-04-27 14:16 | 52.39951 | 4.80881 | 8676 ft | 258 kts | 165° |
| 2026-04-27 14:16 | 52.38141 | 4.81447 | 9530 ft | 274 kts | 173° |
| 2026-04-27 14:17 | 52.36202 | 4.81911 | 10348 ft | 292 kts | 173° |
| 2026-04-27 14:17 | 52.34157 | 4.82437 | 11123 ft | 308 kts | 172° |
| 2026-04-27 14:17 | 52.31971 | 4.83014 | 11894 ft | 323 kts | 172° |
| 2026-04-27 14:17 | 52.29705 | 4.83643 | 12685 ft | 337 kts | 172° |
| 2026-04-27 14:18 | 52.27334 | 4.84319 | 13162 ft | 359 kts | 172° |
| 2026-04-27 14:18 | 52.24817 | 4.84941 | 13285 ft | 378 kts | 177° |
| 2026-04-27 14:18 | 52.22132 | 4.85046 | 13300 ft | 395 kts | 182° |
| 2026-04-27 14:18 | 52.19326 | 4.84904 | 13305 ft | 407 kts | 184° |
| 2026-04-27 14:19 | 52.16489 | 4.84725 | 13285 ft | 408 kts | 184° |
| 2026-04-27 14:19 | 52.13994 | 4.84597 | 13275 ft | 405 kts | 183° |
| 2026-04-27 14:19 | 52.11174 | 4.84497 | 13272 ft | 403 kts | 183° |
| 2026-04-27 14:19 | 52.08370 | 4.84430 | 13273 ft | 403 kts | 182° |
| 2026-04-27 14:20 | 52.05563 | 4.84375 | 13274 ft | 403 kts | 182° |
| 2026-04-27 14:20 | 52.02762 | 4.84234 | 13254 ft | 402 kts | 189° |
| 2026-04-27 14:20 | 52.00110 | 4.82953 | 13271 ft | 398 kts | 207° |
| 2026-04-27 14:20 | 51.97652 | 4.80907 | 13265 ft | 398 kts | 209° |
| 2026-04-27 14:21 | 51.95165 | 4.78892 | 13263 ft | 399 kts | 208° |
| 2026-04-27 14:21 | 51.92699 | 4.76949 | 13263 ft | 399 kts | 207° |
| 2026-04-27 14:21 | 51.90195 | 4.74997 | 13259 ft | 399 kts | 207° |
| 2026-04-27 14:21 | 51.87693 | 4.73051 | 13270 ft | 400 kts | 207° |
| 2026-04-27 14:22 | 51.85188 | 4.71097 | 13254 ft | 399 kts | 207° |
| 2026-04-27 14:22 | 51.82692 | 4.69156 | 13257 ft | 398 kts | 207° |
| 2026-04-27 14:22 | 51.80195 | 4.67213 | 13258 ft | 398 kts | 207° |
| 2026-04-27 14:22 | 51.77697 | 4.65270 | 13256 ft | 399 kts | 207° |
| 2026-04-27 14:23 | 51.75201 | 4.63328 | 13250 ft | 399 kts | 207° |
| 2026-04-27 14:23 | 51.72709 | 4.61391 | 13253 ft | 399 kts | 207° |
| 2026-04-27 14:23 | 51.70232 | 4.59468 | 13235 ft | 399 kts | 207° |
| 2026-04-27 14:23 | 51.67724 | 4.57527 | 13239 ft | 399 kts | 207° |
| 2026-04-27 14:24 | 51.65227 | 4.55596 | 13235 ft | 399 kts | 207° |
| 2026-04-27 14:24 | 51.62695 | 4.53638 | 13233 ft | 399 kts | 207° |
| 2026-04-27 14:24 | 51.60187 | 4.51700 | 13242 ft | 400 kts | 207° |
| 2026-04-27 14:24 | 51.57994 | 4.50008 | 13233 ft | 399 kts | 207° |
| 2026-04-27 14:25 | 51.55495 | 4.48078 | 13233 ft | 398 kts | 207° |
| 2026-04-27 14:25 | 51.52992 | 4.46147 | 13239 ft | 399 kts | 207° |
| 2026-04-27 14:25 | 51.50494 | 4.44219 | 13237 ft | 398 kts | 207° |
| 2026-04-27 14:25 | 51.47992 | 4.42289 | 13240 ft | 399 kts | 207° |
| 2026-04-27 14:26 | 51.45492 | 4.40364 | 13236 ft | 398 kts | 207° |
| 2026-04-27 14:26 | 51.42989 | 4.38441 | 13235 ft | 399 kts | 207° |
| 2026-04-27 14:26 | 51.40486 | 4.36524 | 13244 ft | 399 kts | 207° |
| 2026-04-27 14:26 | 51.37975 | 4.34616 | 13233 ft | 399 kts | 207° |
| 2026-04-27 14:27 | 51.35465 | 4.32720 | 13235 ft | 399 kts | 207° |
| 2026-04-27 14:27 | 51.32950 | 4.30821 | 13224 ft | 400 kts | 207° |
| 2026-04-27 14:27 | 51.30440 | 4.28927 | 13239 ft | 398 kts | 207° |
| 2026-04-27 14:27 | 51.27970 | 4.27068 | 13228 ft | 379 kts | 207° |
| 2026-04-27 14:28 | 51.25629 | 4.25503 | 13177 ft | 353 kts | 197° |
| 2026-04-27 14:28 | 51.23284 | 4.24745 | 12815 ft | 337 kts | 192° |
| 2026-04-27 14:28 | 51.21026 | 4.24143 | 12324 ft | 328 kts | 191° |
| 2026-04-27 14:28 | 51.18798 | 4.23564 | 11810 ft | 321 kts | 191° |
| 2026-04-27 14:29 | 51.16610 | 4.22985 | 11308 ft | 315 kts | 191° |
| 2026-04-27 14:29 | 51.14464 | 4.22405 | 10831 ft | 311 kts | 191° |
| 2026-04-27 14:29 | 51.12347 | 4.21818 | 10331 ft | 307 kts | 192° |
| 2026-04-27 14:29 | 51.10256 | 4.21231 | 9787 ft | 304 kts | 191° |
| 2026-04-27 14:30 | 51.08188 | 4.20653 | 9322 ft | 300 kts | 191° |
| 2026-04-27 14:30 | 51.06177 | 4.20089 | 8781 ft | 297 kts | 190° |
| 2026-04-27 14:30 | 51.04114 | 4.19513 | 8280 ft | 293 kts | 191° |
| 2026-04-27 14:30 | 51.02118 | 4.18951 | 7809 ft | 290 kts | 191° |
| 2026-04-27 14:31 | 51.00148 | 4.18371 | 7310 ft | 287 kts | 190° |
| 2026-04-27 14:31 | 50.98193 | 4.17829 | 6827 ft | 284 kts | 189° |
| 2026-04-27 14:31 | 50.96247 | 4.17292 | 6311 ft | 282 kts | 189° |
| 2026-04-27 14:31 | 50.94327 | 4.16760 | 5813 ft | 279 kts | 189° |
| 2026-04-27 14:32 | 50.92409 | 4.16224 | 5297 ft | 278 kts | 189° |
| 2026-04-27 14:32 | 50.90520 | 4.15693 | 4829 ft | 275 kts | 189° |
| 2026-04-27 14:32 | 50.88676 | 4.15180 | 4335 ft | 274 kts | 189° |
| 2026-04-27 14:32 | 50.86782 | 4.14848 | 3803 ft | 271 kts | 173° |
| 2026-04-27 14:33 | 50.85025 | 4.15772 | 3353 ft | 265 kts | 143° |
| 2026-04-27 14:33 | 50.84644 | 4.16224 | 3247 ft | 262 kts | 135° |
| 2026-04-27 14:33 | 50.84640 | 4.16230 | 3246 ft | 262 kts | 135° |